Donie, Texas
Current Conditions -  °F | °C
As of 4:15 PM on Monday 20 Oct 2014 (Local Time) from KLXY Reporting Station
Scattered Clouds Scattered Clouds  
Wind Chill: 25°   Ceiling: Unl
Heat Index: 26°   Visibility: 10mi
Dew Point: 16°   Wind: 3mph
Humidity: 55%   Direction: 20°NNE
Pressure: 30.02"   Gusts: NA
Location:  31.48°N, 96.22°W
Report Text: KLXY 202115Z AUTO 02003KT 10SM SCT045 25/16 A3002 RMK AO2 T02530157
Loading
Personal Weather Stations






























Interactive Weather Map
Tropical Storm Tracking
New forecast layout! Learn more

10-Day Weather Forecast

Advertisements
Track Severe Weather on mobile